Estación Meteorológica Peña el Pijo (Robertgarden) [ 06/24/19 14:23:47 CEST ]

Fecha Hora Presion(HPa) Temp (°C) Humedad % Rocio (°C) Viento ( m/s) Direccion Lluvia 1Hora(mm) Lluvia 24H(mm) LLuvia Total(mm)
2019-Feb-05 01:02:13 1016.200 1.1 64 -5.0         183.37
2019-Feb-05 02:01:40 1015.700 0.4 65 -5.4         183.37
2019-Feb-05 03:01:41 1015.700 -0.1 67 -5.5         183.37
2019-Feb-05 04:01:40 1015.400 -0.1 69 -5.1         183.37
2019-Feb-05 05:01:42 1015.200 -0.1 69 -5.1         183.37
2019-Feb-05 06:01:43 1015.600 -0.7 70 -5.5         183.37
2019-Feb-05 07:01:56 1015.500 -0.7 71 -5.3         183.37
2019-Feb-05 08:02:02 1015.600 -0.6 72 -5.0         183.37
2019-Feb-05 09:01:46 1016.100 -0.2 71 -4.8         183.37
2019-Feb-05 10:01:40 1016.400 5.9 63 -0.6         183.37
2019-Feb-05 11:01:56 1016.300 11.3 46 0.0         183.37
2019-Feb-05 12:01:38 1016.300 15.3 36 0.2 0.6 NNE     183.37
2019-Feb-05 13:01:53 1015.800 14.7 40 1.2 0.9 N     183.37
2019-Feb-05 14:01:44 1015.100 16.1 39 2.1         183.37
2019-Feb-05 15:01:49 1014.200 17.2 37 2.3         183.37
2019-Feb-05 16:01:34 1014.100 16.6 37 1.7         183.37
2019-Feb-05 17:01:45 1014.200 14.9 40 1.4 0.8 ENE     183.37
2019-Feb-05 18:01:48 1014.200 12.4 45 0.7         183.37
2019-Feb-05 19:01:49 1014.700 9.4 53 0.3         183.37
2019-Feb-05 20:01:47 1015.200 5.8 62 -0.9         183.37
2019-Feb-05 21:01:51 1015.700 4.4 67 -1.2         183.37
2019-Feb-05 22:01:42 1015.800 3.6 71 -1.2         183.37
2019-Feb-05 23:01:47 1016.100 2.5 73 -1.9         183.37

Temperatura Máxima:17°    Temperatura Mínima:
Presión Máxima:1016.400 Hpa    Presión Mínima:1014.100 Hpa


Volver